ENCN/KRS METAR and TAF weather

Enter ICAO airport designator
Station Type Date Time Source
ENCN METAR 2022/05/23 15:20 UTC NOAA

ENCN 231520Z 09010KT 9999 FEW045 SCT057 BKN082 16/09 Q1005


Station Type Date Time Source
ENCN Decoded METAR 2022/05/23 15:20 UTC NOAA

Kristiansand / Kjevik, Norway (ENCN) 58-12N 008-05E 17M
May 23, 2022 - 11:20 AM EDT / 2022.05.23 1520 UTC
Wind: from the E (090 degrees) at 12 MPH (10 KT):0
Visibility: greater than 7 mile(s):0
Sky conditions: mostly cloudy
Temperature: 60 F (16 C)
Dew Point: 48 F (9 C)
Relative Humidity: 63%
Pressure (altimeter): 29.68 in. Hg (1005 hPa)
ob: ENCN 231520Z 09010KT 9999 FEW045 SCT057 BKN082 16/09 Q1005
cycle: 15

Station Type Date Time Source
ENCN TAF 2016/05/06 12:39 UTC NOAA

TAF TAF ENCN 061100Z 0612/0712 14008KT 9999 FEW040

Example: see airport list